createdAt,value
2022-10-23T00:01:57.460Z,21.26
2022-10-23T00:04:26.043Z,21.23
2022-10-23T00:06:53.203Z,21.21
2022-10-23T00:09:22.862Z,21.14
2022-10-23T00:11:51.985Z,21.07
2022-10-23T00:14:22.585Z,20.99
2022-10-23T00:16:50.139Z,20.95
2022-10-23T00:19:17.785Z,20.90
2022-10-23T00:21:46.440Z,20.93
2022-10-23T00:24:13.530Z,20.99
2022-10-23T00:26:41.328Z,21.02
2022-10-23T00:29:09.561Z,21.00
2022-10-23T00:31:36.685Z,20.95
2022-10-23T00:34:04.119Z,20.96
2022-10-23T00:36:31.234Z,20.95
2022-10-23T00:38:59.824Z,20.98
2022-10-23T00:41:28.981Z,20.99
2022-10-23T00:44:00.041Z,20.97
2022-10-23T00:46:27.361Z,20.96
2022-10-23T00:48:54.701Z,20.95
2022-10-23T00:51:22.621Z,20.98
2022-10-23T00:54:01.408Z,21.00
2022-10-23T00:56:45.948Z,20.97
2022-10-23T00:59:13.503Z,20.97
2022-10-23T01:01:41.437Z,20.91
2022-10-23T01:04:10.193Z,20.93
2022-10-23T01:06:42.582Z,20.91
2022-10-23T01:09:18.680Z,20.91
2022-10-23T01:11:55.625Z,20.87
2022-10-23T01:14:32.000Z,20.88
2022-10-23T01:17:09.560Z,20.85
2022-10-23T01:19:56.200Z,20.82
2022-10-23T01:22:45.304Z,20.81
2022-10-23T01:25:28.659Z,21.46
2022-10-23T01:28:05.021Z,21.53
2022-10-23T01:30:36.148Z,21.56
2022-10-23T01:33:10.121Z,21.72
2022-10-23T01:35:46.042Z,21.79
2022-10-23T01:38:19.859Z,21.58
2022-10-23T01:40:55.761Z,21.57
2022-10-23T01:43:29.480Z,21.62
2022-10-23T01:46:01.799Z,21.51
2022-10-23T01:48:32.219Z,21.51
2022-10-23T01:51:06.141Z,21.47
2022-10-23T01:53:39.379Z,21.44
2022-10-23T01:56:11.582Z,21.43
2022-10-23T01:58:46.059Z,21.36
2022-10-23T02:01:18.484Z,21.44
2022-10-23T02:03:48.567Z,21.46
2022-10-23T02:06:16.040Z,21.39
2022-10-23T02:08:43.462Z,21.41
2022-10-23T02:11:14.279Z,21.38
2022-10-23T02:13:51.942Z,21.41
2022-10-23T02:16:29.741Z,21.42
2022-10-23T02:19:11.142Z,21.35
2022-10-23T02:21:50.501Z,21.28
2022-10-23T02:24:25.639Z,21.19
2022-10-23T02:26:56.101Z,21.07
2022-10-23T02:29:31.087Z,21.04
2022-10-23T02:31:58.501Z,21.01
2022-10-23T02:34:25.540Z,21.02
2022-10-23T02:36:53.022Z,20.98
2022-10-23T02:39:21.422Z,20.98
2022-10-23T02:41:56.540Z,20.99
2022-10-23T02:44:39.243Z,21.00
2022-10-23T02:47:21.581Z,20.97
2022-10-23T02:50:02.821Z,21.02
2022-10-23T02:52:41.786Z,21.03
2022-10-23T02:55:27.760Z,20.98
2022-10-23T02:58:01.900Z,20.99
2022-10-23T03:00:33.195Z,21.02
2022-10-23T03:03:10.141Z,20.98
2022-10-23T03:05:41.520Z,20.97
2022-10-23T03:08:10.419Z,21.03
2022-10-23T03:10:37.824Z,21.01
2022-10-23T03:13:04.960Z,20.98
2022-10-23T03:15:33.542Z,20.95
2022-10-23T03:18:00.641Z,20.90
2022-10-23T03:20:27.720Z,20.89
2022-10-23T03:22:54.779Z,20.88
2022-10-23T03:25:21.807Z,20.88
2022-10-23T03:27:48.820Z,20.90
2022-10-23T03:30:17.102Z,20.89
2022-10-23T03:32:45.937Z,20.83
2022-10-23T03:35:13.181Z,20.77
2022-10-23T03:37:40.270Z,20.75
2022-10-23T03:40:09.120Z,20.71
2022-10-23T03:42:36.160Z,20.66
2022-10-23T03:45:03.822Z,20.76
2022-10-23T03:47:31.099Z,20.84
2022-10-23T03:49:59.660Z,20.84
2022-10-23T03:52:26.851Z,20.78
2022-10-23T03:54:53.981Z,20.77
2022-10-23T03:57:21.060Z,20.63
2022-10-23T03:59:48.122Z,20.64
2022-10-23T04:02:15.298Z,20.73
2022-10-23T04:04:42.464Z,20.74
2022-10-23T04:07:11.122Z,20.66
2022-10-23T04:09:38.380Z,20.65
2022-10-23T04:12:06.445Z,20.57
2022-10-23T04:14:33.484Z,20.56
2022-10-23T04:17:00.561Z,20.60
2022-10-23T04:19:27.760Z,20.66
2022-10-23T04:21:54.860Z,20.71
2022-10-23T04:24:23.421Z,20.61
2022-10-23T04:26:50.581Z,20.56
2022-10-23T04:29:18.181Z,20.67
2022-10-23T04:31:45.350Z,20.57
2022-10-23T04:34:12.401Z,20.60
2022-10-23T04:36:39.481Z,20.48
2022-10-23T04:39:06.542Z,20.49
2022-10-23T04:41:35.142Z,20.55
2022-10-23T04:44:02.159Z,20.53
2022-10-23T04:46:29.224Z,20.49
2022-10-23T04:48:56.339Z,20.47
2022-10-23T04:51:23.442Z,20.51
2022-10-23T04:53:50.500Z,20.44
2022-10-23T04:56:17.543Z,20.47
2022-10-23T04:58:46.064Z,20.40
2022-10-23T05:01:13.290Z,20.35
2022-10-23T05:03:40.479Z,20.40
2022-10-23T05:06:07.721Z,20.40
2022-10-23T05:08:34.781Z,20.41
2022-10-23T05:11:01.881Z,20.41
2022-10-23T05:13:29.179Z,20.43
2022-10-23T05:15:59.421Z,20.33
2022-10-23T05:18:32.662Z,20.33
2022-10-23T05:21:05.361Z,20.35
2022-10-23T05:23:37.100Z,20.33
2022-10-23T05:26:05.041Z,20.35
2022-10-23T05:28:32.161Z,20.36
2022-10-23T05:31:04.833Z,20.41
2022-10-23T05:33:34.960Z,20.41
2022-10-23T05:36:03.203Z,20.45
2022-10-23T05:38:34.989Z,20.40
2022-10-23T05:41:02.261Z,20.36
2022-10-23T05:43:29.421Z,20.29
2022-10-23T05:45:56.440Z,20.27
2022-10-23T05:48:34.265Z,20.25
2022-10-23T05:51:06.692Z,20.23
2022-10-23T05:53:36.103Z,20.24
2022-10-23T05:56:07.401Z,20.31
2022-10-23T05:58:34.780Z,20.28
2022-10-23T06:01:05.740Z,20.27
2022-10-23T06:03:34.693Z,20.38
2022-10-23T06:06:01.967Z,20.35
2022-10-23T06:08:30.362Z,20.42
2022-10-23T06:10:57.501Z,20.39
2022-10-23T06:13:24.940Z,20.32
2022-10-23T06:15:52.022Z,20.33
2022-10-23T06:18:19.201Z,20.29
2022-10-23T06:20:47.721Z,20.27
2022-10-23T06:23:14.884Z,20.38
2022-10-23T06:25:41.880Z,20.39
2022-10-23T06:28:08.922Z,20.38
2022-10-23T06:33:11.182Z,20.47
2022-10-23T06:35:38.221Z,20.47
2022-10-23T06:38:06.682Z,20.48
2022-10-23T06:40:33.682Z,20.46
2022-10-23T06:43:00.760Z,20.46
2022-10-23T06:45:27.862Z,20.47
2022-10-23T06:47:54.959Z,20.50
2022-10-23T06:50:22.561Z,20.52
2022-10-23T06:52:49.641Z,20.53
2022-10-23T06:55:18.406Z,20.57
2022-10-23T06:57:45.848Z,20.53
2022-10-23T07:00:13.964Z,20.60
2022-10-23T07:02:41.508Z,20.68
2022-10-23T07:05:12.777Z,20.71
2022-10-23T07:07:41.063Z,20.74
2022-10-23T07:10:08.725Z,20.82
2022-10-23T07:12:37.303Z,20.92
2022-10-23T07:15:05.361Z,20.98
2022-10-23T07:17:32.362Z,21.07
2022-10-23T07:19:59.348Z,21.11
2022-10-23T07:22:26.361Z,21.15
2022-10-23T07:24:53.420Z,21.19
2022-10-23T07:27:20.481Z,21.23
2022-10-23T07:29:52.620Z,21.24
2022-10-23T07:32:19.881Z,21.32
2022-10-23T07:34:47.005Z,21.32
2022-10-23T07:37:14.041Z,21.46
2022-10-23T07:39:41.122Z,21.52
2022-10-23T07:42:10.125Z,21.68
2022-10-23T07:44:37.201Z,21.75
2022-10-23T07:47:05.720Z,21.91
2022-10-23T07:49:32.762Z,22.27
2022-10-23T07:51:59.882Z,22.66
2022-10-23T07:54:27.122Z,22.82
2022-10-23T07:56:54.201Z,22.88
2022-10-23T07:59:21.281Z,22.86
2022-10-23T08:01:50.553Z,22.88
2022-10-23T08:04:21.382Z,22.85
2022-10-23T08:06:48.901Z,22.85
2022-10-23T08:09:15.900Z,22.91
2022-10-23T08:11:44.022Z,22.81
2022-10-23T08:14:11.081Z,22.75
2022-10-23T08:16:39.604Z,23.00
2022-10-23T08:19:08.342Z,23.13
2022-10-23T08:21:36.842Z,23.23
2022-10-23T08:24:04.741Z,23.32
2022-10-23T08:26:31.901Z,23.48
2022-10-23T08:28:59.902Z,23.49
2022-10-23T08:31:28.161Z,23.65
2022-10-23T08:33:55.346Z,23.90
2022-10-23T08:36:24.721Z,23.84
2022-10-23T08:38:55.660Z,23.96
2022-10-23T08:41:27.582Z,24.13
2022-10-23T08:44:02.458Z,24.14
2022-10-23T08:46:34.783Z,24.44
2022-10-23T08:49:21.102Z,24.96
2022-10-23T08:51:52.621Z,24.96
2022-10-23T08:54:26.781Z,25.12
2022-10-23T08:57:01.323Z,25.27
2022-10-23T08:59:35.483Z,25.51
2022-10-23T09:02:14.861Z,25.59
2022-10-23T09:04:47.561Z,25.70
2022-10-23T09:07:30.323Z,25.74
2022-10-23T09:10:17.343Z,25.87
2022-10-23T09:12:44.621Z,25.86
2022-10-23T09:15:22.440Z,25.93
2022-10-23T09:17:57.701Z,26.06
2022-10-23T09:20:27.683Z,26.09
2022-10-23T09:22:58.402Z,26.04
2022-10-23T09:25:30.302Z,26.24
2022-10-23T09:28:01.637Z,26.36
2022-10-23T09:30:34.809Z,26.56
2022-10-23T09:33:14.101Z,26.44
2022-10-23T09:35:54.161Z,26.40
2022-10-23T09:38:29.821Z,26.34
2022-10-23T09:41:00.522Z,26.25
2022-10-23T09:43:28.021Z,26.31
2022-10-23T09:46:00.642Z,26.19
2022-10-23T09:48:28.741Z,26.02
2022-10-23T09:50:57.483Z,26.03
2022-10-23T09:53:33.183Z,25.93
2022-10-23T09:56:04.382Z,25.72
2022-10-23T09:58:36.082Z,25.58
2022-10-23T10:01:04.420Z,25.45
2022-10-23T10:03:32.062Z,25.39
2022-10-23T10:06:01.403Z,25.30
2022-10-23T10:08:43.933Z,25.23
2022-10-23T10:11:20.702Z,25.16
2022-10-23T10:14:19.081Z,25.03
2022-10-23T10:16:54.387Z,24.93
2022-10-23T10:19:36.621Z,24.80
2022-10-23T10:22:17.141Z,24.69
2022-10-23T10:24:53.520Z,24.46
2022-10-23T10:27:38.341Z,24.53
2022-10-23T10:30:13.368Z,24.49
2022-10-23T10:32:47.081Z,24.38
2022-10-23T10:35:25.088Z,24.39
2022-10-23T10:38:20.223Z,24.37
2022-10-23T10:41:06.902Z,24.35
2022-10-23T10:43:47.863Z,24.44
2022-10-23T10:46:26.992Z,24.62
2022-10-23T10:49:01.885Z,24.62
2022-10-23T10:51:34.867Z,24.72
2022-10-23T10:54:18.520Z,24.73
2022-10-23T10:56:48.462Z,24.73
2022-10-23T10:59:24.063Z,24.76
2022-10-23T11:01:59.517Z,24.84
2022-10-23T11:04:36.920Z,24.76
2022-10-23T11:07:11.445Z,24.72
2022-10-23T11:09:39.443Z,24.65
2022-10-23T11:12:06.781Z,24.30
2022-10-23T11:14:35.540Z,24.20
2022-10-23T11:17:11.261Z,24.33
2022-10-23T11:19:45.642Z,24.43
2022-10-23T11:22:26.200Z,24.44
2022-10-23T11:25:26.482Z,24.58
2022-10-23T11:28:17.522Z,24.57
2022-10-23T11:31:11.558Z,24.66
2022-10-23T11:34:12.461Z,24.76
2022-10-23T11:36:50.883Z,24.80
2022-10-23T11:39:25.642Z,24.77
2022-10-23T11:41:55.963Z,24.81
2022-10-23T11:44:27.420Z,24.84
2022-10-23T11:47:04.701Z,24.83
2022-10-23T11:49:32.210Z,24.79
2022-10-23T11:52:05.601Z,24.83
2022-10-23T11:54:32.761Z,24.90
2022-10-23T11:57:12.362Z,24.94
2022-10-23T11:59:54.964Z,24.93
2022-10-23T12:02:32.595Z,24.99
2022-10-23T12:05:05.683Z,24.85
2022-10-23T12:07:37.383Z,24.75
2022-10-23T12:10:08.262Z,24.78
2022-10-23T12:12:37.142Z,24.73
2022-10-23T12:15:22.583Z,24.75
2022-10-23T12:17:52.782Z,24.72
2022-10-23T12:20:28.325Z,24.70
2022-10-23T12:23:15.753Z,24.73
2022-10-23T12:26:02.745Z,24.73
2022-10-23T12:28:40.002Z,24.77
2022-10-23T12:31:25.441Z,24.78
2022-10-23T12:34:06.962Z,24.74
2022-10-23T12:36:57.661Z,24.68
2022-10-23T12:39:29.243Z,24.63
2022-10-23T12:41:57.641Z,24.50
2022-10-23T12:44:26.373Z,24.35
2022-10-23T12:46:57.480Z,24.39
2022-10-23T12:49:29.301Z,24.31
2022-10-23T12:51:58.321Z,24.23
2022-10-23T12:54:25.623Z,24.08
2022-10-23T12:56:54.201Z,24.14
2022-10-23T12:59:25.481Z,24.17
2022-10-23T13:01:53.860Z,23.98
2022-10-23T13:04:29.499Z,24.03
2022-10-23T13:06:58.781Z,24.03
2022-10-23T13:09:32.181Z,24.00
2022-10-23T13:12:02.742Z,23.98
2022-10-23T13:14:39.426Z,23.91
2022-10-23T13:17:11.883Z,23.88
2022-10-23T13:19:40.360Z,23.82
2022-10-23T13:22:19.661Z,23.76
2022-10-23T13:24:47.619Z,23.70
2022-10-23T13:27:26.806Z,23.73
2022-10-23T13:29:54.084Z,24.32
2022-10-23T13:32:25.401Z,24.74
2022-10-23T13:35:04.062Z,24.94
2022-10-23T13:40:23.942Z,24.88
2022-10-23T13:42:52.101Z,24.61
2022-10-23T13:45:22.109Z,24.39
2022-10-23T13:47:49.721Z,24.28
2022-10-23T13:50:18.562Z,24.18
2022-10-23T13:52:46.062Z,24.11
2022-10-23T13:55:22.424Z,24.06
2022-10-23T13:57:49.621Z,24.04
2022-10-23T14:00:17.704Z,24.02
2022-10-23T14:02:45.054Z,24.01
2022-10-23T14:05:12.447Z,23.98
2022-10-23T14:07:41.101Z,23.97
2022-10-23T14:10:08.802Z,23.90
2022-10-23T14:12:40.633Z,23.89
2022-10-23T14:15:09.261Z,23.92
2022-10-23T14:17:36.541Z,24.31
2022-10-23T14:20:06.092Z,24.65
2022-10-23T14:22:33.645Z,24.88
2022-10-23T14:25:02.121Z,24.94
2022-10-23T14:27:30.243Z,24.70
2022-10-23T14:29:57.281Z,24.61
2022-10-23T14:32:24.363Z,24.46
2022-10-23T14:34:55.225Z,24.40
2022-10-23T14:37:22.622Z,24.33
2022-10-23T14:39:50.418Z,24.29
2022-10-23T14:42:19.101Z,24.23
2022-10-23T14:44:46.144Z,24.08
2022-10-23T14:47:13.142Z,23.96
2022-10-23T14:49:40.439Z,23.75
2022-10-23T14:52:08.377Z,23.66
2022-10-23T14:54:35.643Z,23.55
2022-10-23T14:57:03.474Z,23.56
2022-10-23T14:59:32.003Z,23.54
2022-10-23T15:01:59.045Z,23.48
2022-10-23T15:04:26.703Z,23.45
2022-10-23T15:06:53.822Z,23.46
2022-10-23T15:09:20.942Z,23.46
2022-10-23T15:11:48.174Z,23.44
2022-10-23T15:14:15.261Z,23.39
2022-10-23T15:16:43.826Z,23.45
2022-10-23T15:19:17.133Z,23.49
2022-10-23T15:21:46.121Z,24.20
2022-10-23T15:24:13.322Z,24.12
2022-10-23T15:26:40.382Z,23.93
2022-10-23T15:29:07.423Z,24.04
2022-10-23T15:31:44.525Z,24.11
2022-10-23T15:34:13.684Z,24.14
2022-10-23T15:36:41.241Z,24.15
2022-10-23T15:39:09.923Z,24.14
2022-10-23T15:41:40.124Z,24.14
2022-10-23T15:44:08.942Z,24.14
2022-10-23T15:46:36.184Z,24.11
2022-10-23T15:49:05.042Z,24.07
2022-10-23T15:51:32.263Z,23.99
2022-10-23T15:53:59.343Z,23.98
2022-10-23T15:56:26.626Z,23.93
2022-10-23T15:58:53.691Z,23.89
2022-10-23T16:01:20.929Z,23.85
2022-10-23T16:03:48.102Z,23.81
2022-10-23T16:06:17.905Z,23.81
2022-10-23T16:08:46.144Z,23.83
2022-10-23T16:11:16.282Z,23.95
2022-10-23T16:13:43.444Z,24.26
2022-10-23T16:16:11.242Z,24.13
2022-10-23T16:18:38.302Z,24.04
2022-10-23T16:21:05.782Z,23.98
2022-10-23T16:23:34.942Z,23.94
2022-10-23T16:26:04.162Z,23.86
2022-10-23T16:28:31.662Z,23.77
2022-10-23T16:31:00.383Z,23.72
2022-10-23T16:33:27.483Z,23.77
2022-10-23T16:35:54.522Z,23.78
2022-10-23T16:38:21.562Z,23.80
2022-10-23T16:40:53.542Z,23.78
2022-10-23T16:43:20.721Z,23.76
2022-10-23T16:45:47.781Z,23.73
2022-10-23T16:48:15.062Z,23.50
2022-10-23T16:50:42.145Z,23.61
2022-10-23T16:53:09.283Z,23.71
2022-10-23T16:55:40.602Z,23.76
2022-10-23T16:58:09.163Z,23.73
2022-10-23T17:00:36.222Z,23.78
2022-10-23T17:03:05.038Z,23.81
2022-10-23T17:05:34.102Z,23.84
2022-10-23T17:08:01.474Z,23.80
2022-10-23T17:10:28.601Z,23.82
2022-10-23T17:12:55.682Z,23.83
2022-10-23T17:15:24.226Z,23.84
2022-10-23T17:17:51.261Z,23.87
2022-10-23T17:20:18.484Z,23.91
2022-10-23T17:22:45.501Z,23.91
2022-10-23T17:25:12.668Z,23.88
2022-10-23T17:27:39.816Z,23.90
2022-10-23T17:30:12.407Z,23.87
2022-10-23T17:32:41.532Z,23.87
2022-10-23T17:35:09.362Z,23.84
2022-10-23T17:37:36.364Z,23.85
2022-10-23T17:40:03.862Z,23.77
2022-10-23T17:42:31.201Z,23.70
2022-10-23T17:44:58.341Z,23.59
2022-10-23T17:47:25.481Z,23.51
2022-10-23T17:49:54.037Z,23.46
2022-10-23T17:52:21.141Z,23.40
2022-10-23T17:54:51.921Z,23.35
2022-10-23T17:57:19.131Z,23.24
2022-10-23T17:59:46.381Z,23.22
2022-10-23T18:02:13.530Z,23.16
2022-10-23T18:04:40.663Z,23.13
2022-10-23T18:07:09.308Z,23.12
2022-10-23T18:09:36.389Z,23.02
2022-10-23T18:12:03.701Z,23.00
2022-10-23T18:14:32.466Z,22.99
2022-10-23T18:17:00.801Z,22.97
2022-10-23T18:19:27.883Z,23.00
2022-10-23T18:21:54.900Z,23.05
2022-10-23T18:24:23.402Z,23.08
2022-10-23T18:26:50.443Z,23.13
2022-10-23T18:29:18.528Z,23.20
2022-10-23T18:31:47.082Z,23.28
2022-10-23T18:34:17.121Z,23.26
2022-10-23T18:36:44.534Z,23.26
2022-10-23T18:39:14.864Z,23.21
2022-10-23T18:41:45.760Z,23.21
2022-10-23T18:44:16.610Z,23.17
2022-10-23T18:46:44.261Z,23.16
2022-10-23T18:49:11.943Z,23.14
2022-10-23T18:51:39.561Z,23.13
2022-10-23T18:54:11.110Z,22.94
2022-10-23T18:56:38.245Z,23.02
2022-10-23T18:59:10.178Z,23.01
2022-10-23T19:01:37.393Z,23.28
2022-10-23T19:04:05.062Z,23.52
2022-10-23T19:06:34.604Z,23.46
2022-10-23T19:09:01.867Z,23.51
2022-10-23T19:11:29.433Z,23.23
2022-10-23T19:13:56.627Z,22.99
2022-10-23T19:16:30.542Z,22.51
2022-10-23T19:19:02.982Z,22.91
2022-10-23T19:21:36.749Z,22.80
2022-10-23T19:24:08.721Z,22.48
2022-10-23T19:26:39.782Z,22.19
2022-10-23T19:29:10.445Z,22.44
2022-10-23T19:31:39.700Z,22.39
2022-10-23T19:34:06.719Z,22.15
2022-10-23T19:36:33.796Z,22.45
2022-10-23T19:39:00.842Z,22.79
2022-10-23T19:41:27.881Z,22.61
2022-10-23T19:43:54.961Z,22.83
2022-10-23T19:46:22.103Z,22.62
2022-10-23T19:48:50.609Z,22.77
2022-10-23T19:51:17.712Z,22.85
2022-10-23T19:53:45.177Z,22.84
2022-10-23T19:56:13.083Z,22.72
2022-10-23T19:58:40.745Z,22.52
2022-10-23T20:01:10.506Z,22.67
2022-10-23T20:03:38.785Z,22.69
2022-10-23T20:06:10.440Z,22.54
2022-10-23T20:08:37.542Z,22.78
2022-10-23T20:11:05.341Z,22.73
2022-10-23T20:13:32.625Z,21.99
2022-10-23T20:15:59.911Z,21.90
2022-10-23T20:18:27.123Z,22.49
2022-10-23T20:20:54.943Z,22.34
2022-10-23T20:23:23.464Z,22.83
2022-10-23T20:25:50.582Z,23.00
2022-10-23T20:28:17.762Z,22.82
2022-10-23T20:30:44.861Z,22.76
2022-10-23T20:33:11.902Z,23.02
2022-10-23T20:35:40.202Z,23.04
2022-10-23T20:38:08.661Z,23.11
2022-10-23T20:40:37.721Z,23.03
2022-10-23T20:43:04.880Z,22.92
2022-10-23T20:45:31.922Z,22.91
2022-10-23T20:47:59.184Z,23.05
2022-10-23T20:50:26.322Z,23.15
2022-10-23T20:52:53.462Z,23.22
2022-10-23T20:55:20.544Z,23.13
2022-10-23T20:57:49.119Z,23.20
2022-10-23T21:00:16.347Z,23.22
2022-10-23T21:02:47.022Z,23.20
2022-10-23T21:05:15.839Z,23.17
2022-10-23T21:07:42.864Z,23.13
2022-10-23T21:10:10.221Z,23.07
2022-10-23T21:12:37.342Z,23.04
2022-10-23T21:15:07.660Z,23.02
2022-10-23T21:17:34.764Z,22.96
2022-10-23T21:20:01.921Z,22.95
2022-10-23T21:22:28.979Z,22.93
2022-10-23T21:24:56.059Z,22.93
2022-10-23T21:27:23.061Z,22.91
2022-10-23T21:29:50.284Z,22.89
2022-10-23T21:32:18.761Z,22.95
2022-10-23T21:34:45.793Z,22.96
2022-10-23T21:37:14.204Z,23.02
2022-10-23T21:39:42.300Z,23.02
2022-10-23T21:42:09.393Z,22.97
2022-10-23T21:44:36.484Z,22.85
2022-10-23T21:47:03.801Z,22.76
2022-10-23T21:49:32.345Z,22.89
2022-10-23T21:51:59.422Z,22.96
2022-10-23T21:54:26.525Z,22.95
2022-10-23T21:56:53.838Z,23.02
2022-10-23T21:59:23.620Z,23.04
2022-10-23T22:01:50.879Z,23.10
2022-10-23T22:04:19.981Z,23.20
2022-10-23T22:06:50.119Z,23.24
2022-10-23T22:09:19.959Z,23.23
2022-10-23T22:11:48.921Z,23.17
2022-10-23T22:14:16.020Z,23.14
2022-10-23T22:16:43.341Z,23.03
2022-10-23T22:19:11.843Z,22.80
2022-10-23T22:21:39.905Z,22.86
2022-10-23T22:24:09.383Z,22.34
2022-10-23T22:26:39.041Z,22.65
2022-10-23T22:29:08.601Z,22.56
2022-10-23T22:31:36.761Z,22.56
2022-10-23T22:34:18.503Z,22.33
2022-10-23T22:36:53.722Z,22.12
2022-10-23T22:39:22.780Z,22.41
2022-10-23T22:41:49.963Z,22.07
2022-10-23T22:44:17.004Z,21.82
2022-10-23T22:46:45.062Z,21.43
2022-10-23T22:49:12.441Z,21.91
2022-10-23T22:51:39.815Z,21.89
2022-10-23T22:54:07.120Z,22.07
2022-10-23T22:56:36.209Z,21.85
2022-10-23T22:59:04.104Z,22.13
2022-10-23T23:01:34.308Z,22.09
2022-10-23T23:04:13.756Z,22.20
2022-10-23T23:06:47.594Z,22.23
2022-10-23T23:11:51.540Z,22.24
2022-10-23T23:14:23.085Z,21.98
2022-10-23T23:16:52.261Z,21.40
2022-10-23T23:19:19.429Z,21.78
2022-10-23T23:21:46.570Z,21.49
2022-10-23T23:24:13.950Z,21.86
2022-10-23T23:26:41.062Z,21.88
2022-10-23T23:29:09.521Z,21.33
2022-10-23T23:31:36.560Z,21.68
2022-10-23T23:34:03.621Z,21.87
2022-10-23T23:36:30.680Z,21.64
2022-10-23T23:38:58.557Z,21.76
2022-10-23T23:41:28.181Z,21.78
2022-10-23T23:43:56.779Z,21.89
2022-10-23T23:46:26.059Z,22.01
2022-10-23T23:48:53.181Z,22.02
2022-10-23T23:51:22.786Z,22.08
2022-10-23T23:53:51.123Z,21.94
2022-10-23T23:56:19.740Z,22.04
2022-10-23T23:58:47.804Z,21.89
